Time;durP1;ratioP1;P1;durP2;ratioP2;P2;SDS_P1;SDS_P2;PMS_P1;PMS_P2;Temp;Humidity;BMP_temperature;BMP_pressure;BME280_temperature;BME280_humidity;BME280_pressure;Samples;Min_cycle;Max_cycle;Signal;HPM_P1;HPM_P2
2023/06/25 00:02:14;;;;;;;3.83;3.47;;;;;;;;;;5081450;28;20195;-72
2023/06/25 00:04:43;;;;;;;3.85;3.55;;;;;;;;;;5081290;28;20209;-72
2023/06/25 00:07:10;;;;;;;4.15;3.83;;;;;;;;;;5078496;28;20202;-72
2023/06/25 00:09:37;;;;;;;4.07;3.78;;;;;;;;;;5076774;28;20198;-72
2023/06/25 00:12:05;;;;;;;3.90;3.60;;;;;;;;;;5079928;28;20219;-72
2023/06/25 00:14:32;;;;;;;3.63;3.40;;;;;;;;;;5075865;28;20205;-72
2023/06/25 00:16:59;;;;;;;4.20;3.90;;;;;;;;;;5081180;28;20201;-72
2023/06/25 00:19:27;;;;;;;3.95;3.53;;;;;;;;;;5076365;28;20202;-72
2023/06/25 00:21:56;;;;;;;4.20;3.72;;;;;;;;;;5081815;28;20230;-72
2023/06/25 00:24:23;;;;;;;3.85;3.53;;;;;;;;;;5073063;28;20199;-73
2023/06/25 00:26:50;;;;;;;4.28;3.97;;;;;;;;;;5075675;28;20216;-73
2023/06/25 00:29:17;;;;;;;4.20;3.80;;;;;;;;;;5081913;28;20214;-72
2023/06/25 00:31:44;;;;;;;3.85;3.60;;;;;;;;;;5080114;28;20226;-72
2023/06/25 00:34:12;;;;;;;4.22;3.78;;;;;;;;;;5077253;28;20234;-73
2023/06/25 00:36:40;;;;;;;4.30;3.90;;;;;;;;;;5078001;28;20207;-72
2023/06/25 00:39:09;;;;;;;4.60;4.20;;;;;;;;;;5078159;28;20352;-72
2023/06/25 00:41:39;;;;;;;3.80;3.55;;;;;;;;;;5077785;28;20203;-73
2023/06/25 00:44:07;;;;;;;4.28;3.90;;;;;;;;;;5078574;28;20258;-72
2023/06/25 00:46:34;;;;;;;4.00;3.70;;;;;;;;;;5076970;28;20199;-72
2023/06/25 00:49:05;;;;;;;3.97;3.67;;;;;;;;;;5080421;28;20206;-72
2023/06/25 00:51:34;;;;;;;4.10;3.70;;;;;;;;;;5080408;28;20229;-72
2023/06/25 00:54:05;;;;;;;4.13;3.80;;;;;;;;;;5076150;28;20305;-72
2023/06/25 00:56:33;;;;;;;4.20;3.90;;;;;;;;;;5077584;28;20298;-72
2023/06/25 00:59:02;;;;;;;3.72;3.47;;;;;;;;;;5072175;28;20199;-73
2023/06/25 01:01:32;;;;;;;4.32;3.85;;;;;;;;;;5079323;28;20203;-72
2023/06/25 01:04:02;;;;;;;4.10;3.80;;;;;;;;;;5080857;28;20309;-72
2023/06/25 01:06:33;;;;;;;3.78;3.47;;;;;;;;;;5076224;28;20226;-73
2023/06/25 01:09:00;;;;;;;4.00;3.55;;;;;;;;;;5070510;28;20313;-73
2023/06/25 01:11:28;;;;;;;3.45;3.25;;;;;;;;;;5079540;28;20234;-73
2023/06/25 01:13:56;;;;;;;3.88;3.58;;;;;;;;;;5077433;28;20194;-73
2023/06/25 01:16:24;;;;;;;4.25;3.88;;;;;;;;;;5077682;28;20205;-73
2023/06/25 01:18:51;;;;;;;4.30;4.00;;;;;;;;;;5080967;28;20210;-73
2023/06/25 01:21:23;;;;;;;4.13;3.78;;;;;;;;;;5077159;28;20210;-73
2023/06/25 01:23:52;;;;;;;4.75;3.67;;;;;;;;;;5077618;28;20202;-73
2023/06/25 01:26:19;;;;;;;3.85;3.55;;;;;;;;;;5076372;28;20209;-73
2023/06/25 01:28:46;;;;;;;3.53;3.33;;;;;;;;;;5076806;28;20294;-73
2023/06/25 01:31:13;;;;;;;4.30;4.00;;;;;;;;;;5081051;28;20215;-72
2023/06/25 01:33:41;;;;;;;3.95;3.55;;;;;;;;;;5076328;28;20264;-72
2023/06/25 01:36:08;;;;;;;4.15;3.85;;;;;;;;;;5071123;28;20202;-74
2023/06/25 01:38:36;;;;;;;4.50;3.92;;;;;;;;;;5076606;28;20263;-73
2023/06/25 01:41:04;;;;;;;4.57;4.18;;;;;;;;;;5080039;28;20202;-73
2023/06/25 01:43:32;;;;;;;4.15;3.85;;;;;;;;;;5074886;28;20215;-74
2023/06/25 01:45:59;;;;;;;4.30;3.90;;;;;;;;;;5069396;28;20252;-73
2023/06/25 01:48:26;;;;;;;4.53;3.90;;;;;;;;;;5075715;28;20211;-74
2023/06/25 01:50:54;;;;;;;3.50;3.20;;;;;;;;;;5073873;28;20203;-73
2023/06/25 01:53:21;;;;;;;4.15;3.80;;;;;;;;;;5075828;28;20253;-73
2023/06/25 01:55:48;;;;;;;3.67;3.47;;;;;;;;;;5077221;28;20214;-74
2023/06/25 01:58:17;;;;;;;4.40;4.10;;;;;;;;;;5070195;28;20199;-74
2023/06/25 02:00:44;;;;;;;5.80;4.05;;;;;;;;;;5076695;28;20209;-74
2023/06/25 02:03:11;;;;;;;3.72;3.50;;;;;;;;;;5068626;28;20199;-74
2023/06/25 02:05:38;;;;;;;4.43;4.13;;;;;;;;;;5076654;28;20204;-74
2023/06/25 02:08:06;;;;;;;4.03;3.72;;;;;;;;;;5071472;28;20206;-74
2023/06/25 02:10:33;;;;;;;4.25;3.95;;;;;;;;;;5077285;28;20282;-74
2023/06/25 02:13:00;;;;;;;4.22;3.70;;;;;;;;;;5076637;28;20222;-73
2023/06/25 02:15:29;;;;;;;4.47;4.18;;;;;;;;;;5076675;28;20207;-73
2023/06/25 02:17:56;;;;;;;4.20;3.90;;;;;;;;;;5073557;28;20203;-73
2023/06/25 02:20:23;;;;;;;4.38;4.05;;;;;;;;;;5078773;28;20202;-74
2023/06/25 02:22:51;;;;;;;4.38;3.97;;;;;;;;;;5075657;28;20206;-73
2023/06/25 02:25:19;;;;;;;4.53;4.13;;;;;;;;;;5081983;28;20310;-73
2023/06/25 02:27:46;;;;;;;3.67;3.38;;;;;;;;;;5074375;28;20211;-73
2023/06/25 02:30:13;;;;;;;3.78;3.47;;;;;;;;;;5073186;28;20210;-74
2023/06/25 02:32:42;;;;;;;4.40;4.00;;;;;;;;;;5075684;28;20222;-73
2023/06/25 02:35:09;;;;;;;4.65;4.30;;;;;;;;;;5074518;28;20227;-73
2023/06/25 02:37:36;;;;;;;3.55;3.35;;;;;;;;;;5077674;28;20222;-73
2023/06/25 02:40:04;;;;;;;4.35;3.92;;;;;;;;;;5078578;28;20210;-73
2023/06/25 02:42:31;;;;;;;4.60;4.20;;;;;;;;;;5077951;28;20225;-72
2023/06/25 02:44:58;;;;;;;4.55;4.18;;;;;;;;;;5077310;28;20208;-73
2023/06/25 02:47:25;;;;;;;5.63;4.03;;;;;;;;;;5077086;28;20199;-73
2023/06/25 02:49:54;;;;;;;4.25;3.95;;;;;;;;;;5069180;28;20281;-73
2023/06/25 02:52:21;;;;;;;4.30;4.00;;;;;;;;;;5075347;28;20233;-73
2023/06/25 02:54:48;;;;;;;4.20;3.80;;;;;;;;;;5079605;28;20212;-73
2023/06/25 02:57:15;;;;;;;4.55;4.22;;;;;;;;;;5074124;28;20293;-73
2023/06/25 02:59:42;;;;;;;4.28;3.97;;;;;;;;;;5078001;28;20207;-73
2023/06/25 03:02:09;;;;;;;4.60;4.13;;;;;;;;;;5071882;28;20195;-73
2023/06/25 03:04:37;;;;;;;4.20;3.90;;;;;;;;;;5080365;28;20206;-73
2023/06/25 03:07:05;;;;;;;4.00;3.70;;;;;;;;;;5077525;28;20279;-73
2023/06/25 03:09:33;;;;;;;4.60;4.30;;;;;;;;;;5080655;28;20198;-73
2023/06/25 03:12:00;;;;;;;4.60;4.20;;;;;;;;;;5073298;28;20237;-73
2023/06/25 03:14:27;;;;;;;3.92;3.63;;;;;;;;;;5069026;28;20206;-73
2023/06/25 03:16:54;;;;;;;4.55;4.20;;;;;;;;;;5075727;28;20202;-73
2023/06/25 03:19:21;;;;;;;4.50;4.10;;;;;;;;;;5075115;28;20213;-73
2023/06/25 03:21:49;;;;;;;4.40;4.00;;;;;;;;;;5078960;28;20211;-73
2023/06/25 03:24:17;;;;;;;4.45;4.15;;;;;;;;;;5079732;28;20269;-73
2023/06/25 03:26:44;;;;;;;4.70;4.30;;;;;;;;;;5077661;28;20190;-73
2023/06/25 03:29:11;;;;;;;4.10;3.80;;;;;;;;;;5074279;28;20194;-73
2023/06/25 03:31:39;;;;;;;5.10;4.28;;;;;;;;;;5074067;28;20225;-73
2023/06/25 03:34:06;;;;;;;4.30;4.00;;;;;;;;;;5080855;28;20222;-73
2023/06/25 03:36:33;;;;;;;5.65;4.68;;;;;;;;;;5078086;28;20221;-73
2023/06/25 03:39:00;;;;;;;4.88;4.47;;;;;;;;;;5078180;28;20217;-73
2023/06/25 03:41:29;;;;;;;4.70;4.30;;;;;;;;;;5076763;28;20207;-73
2023/06/25 03:43:56;;;;;;;4.47;4.18;;;;;;;;;;5079178;28;20214;-73
2023/06/25 03:46:23;;;;;;;4.72;4.20;;;;;;;;;;5077474;28;20194;-73
2023/06/25 03:48:51;;;;;;;4.95;4.45;;;;;;;;;;5074126;28;20195;-74
2023/06/25 03:51:18;;;;;;;4.95;4.45;;;;;;;;;;5076973;28;20224;-73
2023/06/25 03:53:45;;;;;;;4.63;4.20;;;;;;;;;;5073600;28;20213;-73
2023/06/25 03:56:12;;;;;;;4.55;4.03;;;;;;;;;;5075852;28;20207;-73
2023/06/25 03:58:41;;;;;;;4.72;4.30;;;;;;;;;;5075724;28;20207;-73
2023/06/25 04:01:08;;;;;;;5.40;4.40;;;;;;;;;;5076602;28;20202;-73
2023/06/25 04:03:35;;;;;;;4.57;4.25;;;;;;;;;;5075709;28;20209;-73
2023/06/25 04:06:02;;;;;;;4.85;4.45;;;;;;;;;;5075258;28;20214;-73
2023/06/25 04:08:29;;;;;;;4.80;4.40;;;;;;;;;;5071493;28;20232;-73
2023/06/25 04:10:57;;;;;;;4.85;4.30;;;;;;;;;;5076073;28;20207;-73
2023/06/25 04:13:24;;;;;;;5.10;4.35;;;;;;;;;;5074900;28;20223;-73
2023/06/25 04:15:52;;;;;;;4.63;4.32;;;;;;;;;;5077225;28;20202;-73
2023/06/25 04:18:19;;;;;;;4.38;4.07;;;;;;;;;;5081317;28;20203;-73
2023/06/25 04:20:47;;;;;;;4.70;4.30;;;;;;;;;;5079348;28;20206;-73
2023/06/25 04:23:14;;;;;;;4.28;3.97;;;;;;;;;;5076975;28;20199;-73
2023/06/25 04:25:43;;;;;;;5.03;4.47;;;;;;;;;;5077495;28;20203;-73
2023/06/25 04:28:14;;;;;;;5.00;4.60;;;;;;;;;;5068799;28;20199;-73
2023/06/25 04:30:41;;;;;;;4.85;4.45;;;;;;;;;;5076841;28;20207;-73
2023/06/25 04:33:10;;;;;;;4.95;4.55;;;;;;;;;;5080364;28;20269;-73
2023/06/25 04:35:37;;;;;;;6.97;4.72;;;;;;;;;;5079403;28;20198;-73
2023/06/25 04:38:05;;;;;;;5.03;4.40;;;;;;;;;;5078302;28;20202;-73
2023/06/25 04:40:32;;;;;;;4.97;4.57;;;;;;;;;;5077607;28;20198;-73
2023/06/25 04:42:59;;;;;;;4.70;4.18;;;;;;;;;;5075924;28;20206;-73
2023/06/25 04:45:26;;;;;;;5.05;4.60;;;;;;;;;;5077894;28;20206;-73
2023/06/25 04:47:54;;;;;;;4.78;4.38;;;;;;;;;;5077541;28;20232;-73
2023/06/25 04:50:22;;;;;;;5.35;4.47;;;;;;;;;;5078301;28;20199;-73
2023/06/25 04:52:49;;;;;;;4.85;4.45;;;;;;;;;;5077385;28;20214;-73
2023/06/25 04:55:17;;;;;;;4.75;4.25;;;;;;;;;;5078446;28;20202;-73
2023/06/25 04:57:44;;;;;;;5.28;4.53;;;;;;;;;;5078680;28;20194;-73
2023/06/25 05:00:11;;;;;;;4.80;4.40;;;;;;;;;;5075457;28;20202;-73
2023/06/25 05:02:39;;;;;;;5.00;4.60;;;;;;;;;;5077461;28;20201;-73
2023/06/25 05:05:06;;;;;;;5.00;4.60;;;;;;;;;;5075639;28;20210;-74
2023/06/25 05:07:35;;;;;;;4.93;4.53;;;;;;;;;;5078414;28;20202;-74
2023/06/25 05:10:02;;;;;;;6.65;4.70;;;;;;;;;;5077287;28;20218;-73
2023/06/25 05:12:29;;;;;;;5.22;4.70;;;;;;;;;;5081990;28;20225;-73
2023/06/25 05:14:56;;;;;;;5.10;4.70;;;;;;;;;;5075743;28;20202;-73
2023/06/25 05:17:23;;;;;;;5.50;5.00;;;;;;;;;;5080910;28;20199;-73
2023/06/25 05:19:51;;;;;;;5.45;5.05;;;;;;;;;;5079473;28;20209;-73
2023/06/25 05:22:18;;;;;;;5.13;4.65;;;;;;;;;;5078223;28;20205;-73
2023/06/25 05:24:46;;;;;;;5.03;4.50;;;;;;;;;;5075749;28;20209;-73
2023/06/25 05:27:13;;;;;;;5.15;4.78;;;;;;;;;;5081583;28;20198;-73
2023/06/25 05:29:41;;;;;;;4.90;4.47;;;;;;;;;;5081539;28;20203;-74
2023/06/25 05:32:08;;;;;;;5.40;4.90;;;;;;;;;;5072976;28;20203;-73
2023/06/25 05:34:35;;;;;;;4.82;4.43;;;;;;;;;;5074058;28;20230;-73
2023/06/25 05:37:02;;;;;;;4.95;4.55;;;;;;;;;;5085512;28;20210;-73
2023/06/25 05:39:29;;;;;;;4.80;4.40;;;;;;;;;;5081846;28;20210;-72
2023/06/25 05:41:58;;;;;;;5.85;4.32;;;;;;;;;;5079566;28;20211;-73
2023/06/25 05:44:26;;;;;;;4.68;4.35;;;;;;;;;;5080020;28;20209;-72
2023/06/25 05:46:53;;;;;;;4.63;4.32;;;;;;;;;;5085425;28;20202;-72
2023/06/25 05:49:20;;;;;;;5.43;4.88;;;;;;;;;;5078514;28;20206;-72
2023/06/25 05:51:48;;;;;;;5.07;4.68;;;;;;;;;;5078004;28;20215;-72
2023/06/25 05:54:15;;;;;;;5.38;4.88;;;;;;;;;;5081208;28;20226;-72
2023/06/25 05:56:42;;;;;;;5.05;4.53;;;;;;;;;;5081770;28;20206;-71
2023/06/25 05:59:10;;;;;;;4.82;4.43;;;;;;;;;;5076363;28;20205;-71
2023/06/25 06:01:38;;;;;;;5.53;5.03;;;;;;;;;;5078102;28;20205;-71
2023/06/25 06:04:05;;;;;;;5.05;4.50;;;;;;;;;;5080276;28;20289;-71
2023/06/25 06:06:33;;;;;;;5.20;4.75;;;;;;;;;;5075581;28;20202;-71
2023/06/25 06:09:00;;;;;;;4.55;4.20;;;;;;;;;;5074565;28;20233;-71
2023/06/25 06:11:27;;;;;;;4.80;4.40;;;;;;;;;;5079990;28;20285;-71
2023/06/25 06:13:54;;;;;;;5.57;4.38;;;;;;;;;;5079923;28;20293;-70
2023/06/25 06:16:23;;;;;;;4.57;4.28;;;;;;;;;;5079043;28;20198;-71
2023/06/25 06:18:50;;;;;;;4.80;4.40;;;;;;;;;;5077916;28;20205;-70
2023/06/25 06:21:17;;;;;;;4.57;4.18;;;;;;;;;;5070569;28;20198;-70
2023/06/25 06:23:44;;;;;;;4.55;4.25;;;;;;;;;;5070555;28;20199;-70
2023/06/25 06:26:11;;;;;;;4.55;4.15;;;;;;;;;;5072955;28;20206;-69
2023/06/25 06:28:39;;;;;;;4.75;4.35;;;;;;;;;;5071185;28;20212;-69
2023/06/25 06:31:06;;;;;;;5.07;4.60;;;;;;;;;;5074006;28;20208;-69
2023/06/25 06:33:34;;;;;;;4.78;4.32;;;;;;;;;;5067884;28;20233;-68
2023/06/25 06:36:02;;;;;;;4.70;4.30;;;;;;;;;;5070729;28;20203;-68
2023/06/25 06:38:29;;;;;;;4.85;4.50;;;;;;;;;;5068136;28;20233;-68
2023/06/25 06:40:57;;;;;;;4.90;4.40;;;;;;;;;;5075835;28;20199;-67
2023/06/25 06:43:25;;;;;;;4.50;4.10;;;;;;;;;;5073595;28;20195;-67
2023/06/25 06:45:52;;;;;;;4.82;4.05;;;;;;;;;;5076342;28;20202;-67
2023/06/25 06:48:19;;;;;;;4.55;4.15;;;;;;;;;;5079994;28;20213;-68
2023/06/25 06:50:47;;;;;;;4.70;4.20;;;;;;;;;;5073377;28;20198;-68
2023/06/25 06:53:15;;;;;;;3.90;3.60;;;;;;;;;;5079008;28;20247;-68
2023/06/25 06:55:42;;;;;;;5.72;4.13;;;;;;;;;;5077924;28;20198;-68
2023/06/25 06:58:09;;;;;;;4.50;4.20;;;;;;;;;;5074820;28;20194;-68
2023/06/25 07:00:36;;;;;;;7.20;4.03;;;;;;;;;;5072667;28;20200;-68
2023/06/25 07:03:03;;;;;;;4.68;4.22;;;;;;;;;;5073153;28;20199;-68
2023/06/25 07:05:30;;;;;;;3.75;3.55;;;;;;;;;;5078861;28;20213;-68
2023/06/25 07:07:59;;;;;;;4.15;3.75;;;;;;;;;;5077329;28;20202;-68
2023/06/25 07:10:26;;;;;;;4.20;3.80;;;;;;;;;;5075568;28;20297;-69
2023/06/25 07:12:53;;;;;;;4.07;3.67;;;;;;;;;;5077037;28;20214;-69
2023/06/25 07:15:20;;;;;;;4.60;4.20;;;;;;;;;;5077949;28;20203;-69
2023/06/25 07:17:47;;;;;;;4.07;3.78;;;;;;;;;;5081681;28;20209;-69
2023/06/25 07:20:15;;;;;;;4.30;3.90;;;;;;;;;;5080450;28;20202;-69
2023/06/25 07:22:43;;;;;;;4.40;4.10;;;;;;;;;;5076438;28;20206;-69
2023/06/25 07:25:12;;;;;;;4.38;3.97;;;;;;;;;;5078398;28;20203;-69
2023/06/25 07:27:39;;;;;;;4.55;4.15;;;;;;;;;;5077836;28;20230;-69
2023/06/25 07:30:07;;;;;;;4.32;3.92;;;;;;;;;;5074010;28;20211;-69
2023/06/25 07:32:34;;;;;;;3.97;3.67;;;;;;;;;;5075299;28;20203;-69
2023/06/25 07:35:01;;;;;;;4.43;4.10;;;;;;;;;;5069973;28;20226;-69
2023/06/25 07:37:28;;;;;;;4.50;3.85;;;;;;;;;;5072619;28;20216;-68
2023/06/25 07:39:56;;;;;;;4.30;3.90;;;;;;;;;;5070169;28;20206;-68
2023/06/25 07:42:24;;;;;;;3.72;3.42;;;;;;;;;;5073557;28;20198;-68
2023/06/25 07:44:51;;;;;;;3.65;3.40;;;;;;;;;;5068780;28;20199;-68
2023/06/25 07:47:18;;;;;;;3.65;3.45;;;;;;;;;;5074355;28;20204;-68
2023/06/25 07:49:46;;;;;;;4.03;3.72;;;;;;;;;;5077341;28;20205;-68
2023/06/25 07:52:13;;;;;;;3.88;3.38;;;;;;;;;;5070143;28;20209;-68
2023/06/25 07:54:40;;;;;;;4.28;3.97;;;;;;;;;;5071992;28;20241;-68
2023/06/25 07:57:07;;;;;;;3.90;3.60;;;;;;;;;;5076357;28;20206;-68
2023/06/25 07:59:36;;;;;;;3.60;3.30;;;;;;;;;;5078979;28;20210;-68
2023/06/25 08:02:03;;;;;;;4.13;3.70;;;;;;;;;;5075870;28;20256;-68
2023/06/25 08:04:31;;;;;;;3.40;3.15;;;;;;;;;;5071589;28;20201;-67
2023/06/25 08:06:58;;;;;;;4.22;3.83;;;;;;;;;;5075714;28;20222;-67
2023/06/25 08:09:25;;;;;;;3.22;3.03;;;;;;;;;;5077319;28;20195;-67
2023/06/25 08:11:53;;;;;;;4.68;3.50;;;;;;;;;;5081722;28;20203;-67
2023/06/25 08:14:20;;;;;;;3.90;3.60;;;;;;;;;;5077892;28;20221;-68
2023/06/25 08:16:48;;;;;;;3.72;3.30;;;;;;;;;;5077865;28;20216;-68
2023/06/25 08:19:15;;;;;;;3.67;3.30;;;;;;;;;;5075328;28;20207;-68
2023/06/25 08:21:43;;;;;;;5.45;3.60;;;;;;;;;;5079087;28;20217;-67
2023/06/25 08:24:10;;;;;;;3.58;3.28;;;;;;;;;;5079506;28;20217;-67
2023/06/25 08:26:37;;;;;;;3.58;3.33;;;;;;;;;;5078049;28;20202;-68
2023/06/25 08:29:05;;;;;;;3.25;3.05;;;;;;;;;;5073816;28;20202;-69
2023/06/25 08:31:32;;;;;;;4.03;3.72;;;;;;;;;;5072863;28;20202;-68
2023/06/25 08:34:00;;;;;;;3.85;3.10;;;;;;;;;;5075150;28;20229;-67
2023/06/25 08:36:27;;;;;;;3.55;3.35;;;;;;;;;;5071820;28;20207;-68
2023/06/25 08:38:55;;;;;;;3.80;3.50;;;;;;;;;;5075293;28;20214;-69
2023/06/25 08:41:22;;;;;;;4.18;3.10;;;;;;;;;;5075996;28;20199;-69
2023/06/25 08:43:49;;;;;;;3.40;3.10;;;;;;;;;;5081600;28;20194;-69
2023/06/25 08:46:16;;;;;;;3.00;2.80;;;;;;;;;;5079940;28;20211;-68
2023/06/25 08:48:43;;;;;;;4.03;3.30;;;;;;;;;;5076954;28;20199;-68
2023/06/25 08:51:14;;;;;;;3.35;3.15;;;;;;;;;;5074079;28;20206;-69
2023/06/25 08:53:41;;;;;;;3.50;3.22;;;;;;;;;;5076199;28;20257;-68
2023/06/25 08:56:09;;;;;;;3.30;3.10;;;;;;;;;;5076639;28;20208;-69
2023/06/25 08:58:36;;;;;;;3.20;3.00;;;;;;;;;;5080229;28;20206;-69
2023/06/25 09:01:03;;;;;;;3.92;3.08;;;;;;;;;;5077287;28;20213;-69
2023/06/25 09:03:31;;;;;;;3.08;2.88;;;;;;;;;;5078131;28;20256;-69
2023/06/25 09:05:58;;;;;;;3.40;3.17;;;;;;;;;;5081751;28;20209;-69
2023/06/25 09:08:27;;;;;;;3.10;2.90;;;;;;;;;;5082320;28;20211;-68
2023/06/25 09:10:55;;;;;;;3.50;3.20;;;;;;;;;;5080733;28;20205;-68
2023/06/25 09:13:23;;;;;;;3.63;3.33;;;;;;;;;;5072367;28;20205;-68
2023/06/25 09:15:50;;;;;;;3.88;3.33;;;;;;;;;;5071563;28;20206;-69
2023/06/25 09:18:21;;;;;;;3.38;3.13;;;;;;;;;;5078202;28;20198;-69
2023/06/25 09:20:48;;;;;;;3.28;3.05;;;;;;;;;;5078043;28;20198;-68
2023/06/25 09:23:20;;;;;;;5.25;3.03;;;;;;;;;;5083469;28;20194;-69
2023/06/25 09:25:49;;;;;;;3.97;3.20;;;;;;;;;;5072167;28;20213;-69
2023/06/25 09:28:16;;;;;;;3.50;3.20;;;;;;;;;;5079142;28;20202;-69
2023/06/25 09:30:43;;;;;;;3.83;3.53;;;;;;;;;;5078175;28;20309;-69
2023/06/25 09:33:11;;;;;;;3.72;3.15;;;;;;;;;;5077117;28;20230;-68
2023/06/25 09:35:38;;;;;;;5.35;3.63;;;;;;;;;;5073434;28;20199;-69
2023/06/25 09:38:06;;;;;;;3.30;3.10;;;;;;;;;;5082413;28;20206;-69
2023/06/25 09:40:34;;;;;;;3.58;3.28;;;;;;;;;;5082938;28;20206;-68
2023/06/25 09:43:05;;;;;;;3.60;3.30;;;;;;;;;;5079537;28;20213;-70
2023/06/25 09:45:32;;;;;;;2.83;2.63;;;;;;;;;;5078691;28;20202;-69
2023/06/25 09:47:59;;;;;;;3.13;2.83;;;;;;;;;;5075253;28;20194;-70
2023/06/25 09:50:28;;;;;;;3.10;2.90;;;;;;;;;;5077264;28;20202;-69
2023/06/25 09:52:56;;;;;;;3.30;3.00;;;;;;;;;;5075978;28;20198;-68
2023/06/25 09:55:23;;;;;;;3.65;3.35;;;;;;;;;;5073928;28;20245;-63
2023/06/25 09:57:51;;;;;;;3.10;2.88;;;;;;;;;;5070866;28;20195;-64
2023/06/25 10:00:20;;;;;;;3.30;3.10;;;;;;;;;;5079137;28;20202;-64
2023/06/25 10:02:47;;;;;;;3.78;3.40;;;;;;;;;;5077443;28;20206;-62
2023/06/25 10:05:14;;;;;;;3.20;2.90;;;;;;;;;;5077657;28;20195;-62
2023/06/25 10:07:42;;;;;;;3.08;2.88;;;;;;;;;;5077154;28;20309;-63
2023/06/25 10:10:20;;;;;;;3.47;3.17;;;;;;;;;;5075593;28;20213;-63
2023/06/25 10:12:49;;;;;;;3.60;3.30;;;;;;;;;;5076168;28;20210;-63
2023/06/25 10:15:28;;;;;;;3.95;3.15;;;;;;;;;;5082707;28;20233;-62
2023/06/25 10:17:58;;;;;;;3.05;2.85;;;;;;;;;;5076163;28;20268;-62
2023/06/25 10:20:30;;;;;;;3.58;3.28;;;;;;;;;;5072893;28;20194;-62
2023/06/25 10:23:07;;;;;;;3.00;2.80;;;;;;;;;;5078284;28;20202;-64
2023/06/25 10:25:34;;;;;;;4.22;3.25;;;;;;;;;;5079617;28;20203;-64
2023/06/25 10:28:09;;;;;;;3.60;3.30;;;;;;;;;;5073982;28;20205;-65
2023/06/25 10:30:37;;;;;;;2.92;2.80;;;;;;;;;;5071625;28;20225;-62
2023/06/25 10:33:06;;;;;;;3.67;3.38;;;;;;;;;;5081379;28;20203;-63
2023/06/25 10:35:37;;;;;;;3.30;3.10;;;;;;;;;;5073594;28;20214;-63
2023/06/25 10:38:04;;;;;;;3.05;2.90;;;;;;;;;;5075814;28;20198;-62
2023/06/25 10:40:34;;;;;;;3.85;3.55;;;;;;;;;;5073917;28;20209;-64
2023/06/25 10:43:02;;;;;;;3.33;3.10;;;;;;;;;;5071646;28;20206;-63
2023/06/25 10:45:29;;;;;;;4.05;3.10;;;;;;;;;;5068583;28;20225;-63
2023/06/25 10:48:03;;;;;;;3.72;3.53;;;;;;;;;;5075397;28;20202;-63
2023/06/25 10:50:32;;;;;;;3.20;3.00;;;;;;;;;;5075277;28;20241;-64
2023/06/25 10:52:59;;;;;;;3.70;3.40;;;;;;;;;;5073894;28;20199;-64
2023/06/25 10:55:26;;;;;;;3.45;3.15;;;;;;;;;;5075837;28;20287;-63
2023/06/25 10:57:54;;;;;;;3.65;3.22;;;;;;;;;;5070931;28;20206;-63
2023/06/25 11:00:22;;;;;;;4.03;3.20;;;;;;;;;;5073036;28;20201;-62
2023/06/25 11:02:51;;;;;;;2.90;2.70;;;;;;;;;;5077829;28;20229;-64
2023/06/25 11:05:19;;;;;;;5.55;3.10;;;;;;;;;;5080068;28;20205;-64
2023/06/25 11:07:53;;;;;;;3.85;3.45;;;;;;;;;;5080934;28;20213;-63
2023/06/25 11:10:22;;;;;;;3.78;3.47;;;;;;;;;;5078312;28;20202;-65
2023/06/25 11:12:49;;;;;;;3.28;2.97;;;;;;;;;;5070327;28;20203;-64
2023/06/25 11:15:17;;;;;;;3.55;3.20;;;;;;;;;;5071152;28;20234;-66
2023/06/25 11:17:44;;;;;;;3.65;3.30;;;;;;;;;;5073793;28;20210;-65
2023/06/25 11:20:12;;;;;;;3.50;3.20;;;;;;;;;;5077771;28;20214;-65
2023/06/25 11:22:43;;;;;;;3.83;3.60;;;;;;;;;;5071329;28;20264;-64
2023/06/25 11:25:12;;;;;;;4.88;3.25;;;;;;;;;;5071836;28;20211;-65
2023/06/25 11:27:40;;;;;;;3.20;2.97;;;;;;;;;;5077457;28;20275;-64
2023/06/25 11:30:08;;;;;;;3.50;3.30;;;;;;;;;;5074540;28;20210;-64
2023/06/25 11:32:35;;;;;;;3.00;2.80;;;;;;;;;;5081227;28;20198;-63
2023/06/25 11:35:10;;;;;;;3.40;3.10;;;;;;;;;;5081565;28;20239;-64
2023/06/25 11:37:43;;;;;;;3.10;2.90;;;;;;;;;;5081813;28;20212;-63
2023/06/25 11:40:21;;;;;;;3.00;2.72;;;;;;;;;;5073610;28;20263;-63
2023/06/25 11:42:48;;;;;;;3.50;3.20;;;;;;;;;;5076214;28;20267;-64
2023/06/25 11:45:15;;;;;;;3.42;3.22;;;;;;;;;;5083163;28;20229;-65
2023/06/25 11:47:45;;;;;;;3.30;2.90;;;;;;;;;;5078697;28;20198;-63
2023/06/25 11:50:12;;;;;;;3.22;3.03;;;;;;;;;;5081320;28;20203;-64
2023/06/25 11:52:39;;;;;;;3.50;3.20;;;;;;;;;;5086073;28;20305;-62
2023/06/25 11:55:07;;;;;;;3.42;3.20;;;;;;;;;;5085959;28;20229;-63
2023/06/25 11:57:36;;;;;;;3.40;3.10;;;;;;;;;;5082359;28;20229;-62
2023/06/25 12:00:03;;;;;;;3.97;3.67;;;;;;;;;;5091270;28;20228;-62
2023/06/25 12:02:30;;;;;;;3.20;3.00;;;;;;;;;;5078694;28;20245;-63
2023/06/25 12:04:58;;;;;;;3.42;3.17;;;;;;;;;;5075005;28;20206;-63
2023/06/25 12:07:25;;;;;;;3.63;3.33;;;;;;;;;;5079002;28;20208;-63
2023/06/25 12:09:52;;;;;;;3.10;2.90;;;;;;;;;;5075399;28;20214;-63
2023/06/25 12:12:19;;;;;;;3.70;3.40;;;;;;;;;;5079040;28;20206;-63
2023/06/25 12:14:48;;;;;;;4.20;3.03;;;;;;;;;;5079268;28;20271;-63
2023/06/25 12:17:15;;;;;;;3.65;3.40;;;;;;;;;;5081589;28;20206;-62
2023/06/25 12:19:42;;;;;;;2.88;2.67;;;;;;;;;;5082039;28;20213;-63
2023/06/25 12:22:10;;;;;;;3.25;3.05;;;;;;;;;;5086581;28;20209;-65
2023/06/25 12:24:37;;;;;;;3.30;3.10;;;;;;;;;;5081281;28;20197;-62
2023/06/25 12:27:05;;;;;;;5.63;3.22;;;;;;;;;;5086068;28;20231;-63
2023/06/25 12:29:32;;;;;;;3.30;3.10;;;;;;;;;;5087494;28;20234;-61
2023/06/25 12:32:01;;;;;;;3.67;3.28;;;;;;;;;;5082300;28;20216;-62
2023/06/25 12:34:29;;;;;;;4.85;3.53;;;;;;;;;;5078701;28;20234;-62
2023/06/25 12:36:56;;;;;;;3.35;3.15;;;;;;;;;;5075477;28;20237;-63
2023/06/25 12:39:23;;;;;;;3.10;2.90;;;;;;;;;;5086062;28;20205;-62
2023/06/25 12:41:50;;;;;;;3.42;3.22;;;;;;;;;;5085814;28;20226;-63
2023/06/25 12:44:17;;;;;;;3.53;3.28;;;;;;;;;;5087160;28;20229;-63
2023/06/25 12:46:44;;;;;;;3.83;3.53;;;;;;;;;;5073365;28;20210;-63
2023/06/25 12:49:13;;;;;;;3.72;3.42;;;;;;;;;;5085309;28;20206;-63
2023/06/25 12:51:40;;;;;;;3.13;2.92;;;;;;;;;;5073861;28;20220;-62
2023/06/25 12:54:07;;;;;;;3.70;3.40;;;;;;;;;;5081404;28;20216;-62
2023/06/25 12:56:34;;;;;;;3.30;3.00;;;;;;;;;;5078920;28;20229;-63
2023/06/25 12:59:01;;;;;;;3.10;2.85;;;;;;;;;;5072872;28;20202;-63
2023/06/25 13:01:29;;;;;;;3.30;3.10;;;;;;;;;;5076926;28;20307;-63
2023/06/25 13:03:56;;;;;;;3.72;3.40;;;;;;;;;;5078513;28;20202;-68
2023/06/25 13:06:25;;;;;;;3.85;3.45;;;;;;;;;;5076302;28;20209;-67
2023/06/25 13:08:52;;;;;;;3.35;3.15;;;;;;;;;;5076342;28;20234;-67
2023/06/25 13:11:19;;;;;;;3.22;2.90;;;;;;;;;;5081077;28;20212;-67
2023/06/25 13:13:46;;;;;;;5.45;3.60;;;;;;;;;;5080513;28;20206;-67
2023/06/25 13:16:14;;;;;;;3.72;3.38;;;;;;;;;;5077332;28;20226;-67
2023/06/25 13:18:41;;;;;;;3.10;2.90;;;;;;;;;;5081291;28;20210;-67
2023/06/25 13:21:09;;;;;;;3.33;3.03;;;;;;;;;;5078045;28;20213;-67
2023/06/25 13:23:38;;;;;;;5.10;3.50;;;;;;;;;;5079271;28;20198;-67
2023/06/25 13:26:05;;;;;;;3.50;3.30;;;;;;;;;;5085558;28;20231;-67
2023/06/25 13:28:32;;;;;;;3.20;3.00;;;;;;;;;;5072376;28;20209;-68
2023/06/25 13:31:00;;;;;;;4.93;3.17;;;;;;;;;;5080212;28;20288;-68
2023/06/25 13:33:27;;;;;;;3.30;2.95;;;;;;;;;;5079229;28;20291;-67
2023/06/25 13:35:54;;;;;;;3.33;3.13;;;;;;;;;;5076238;28;20225;-67
2023/06/25 13:38:21;;;;;;;3.20;3.00;;;;;;;;;;5080175;28;20206;-67
2023/06/25 13:40:50;;;;;;;3.45;3.15;;;;;;;;;;5078843;28;20202;-68
2023/06/25 13:43:17;;;;;;;3.17;2.97;;;;;;;;;;5076199;28;20194;-68
2023/06/25 13:45:44;;;;;;;3.40;3.20;;;;;;;;;;5082747;28;20206;-67
2023/06/25 13:48:11;;;;;;;3.78;3.08;;;;;;;;;;5074887;28;20198;-67
2023/06/25 13:50:39;;;;;;;3.40;3.20;;;;;;;;;;5076477;28;20194;-67
2023/06/25 13:53:06;;;;;;;3.38;3.15;;;;;;;;;;5070832;28;20202;-67
2023/06/25 13:55:33;;;;;;;3.20;3.00;;;;;;;;;;5075039;28;20232;-68
2023/06/25 13:58:02;;;;;;;3.88;3.67;;;;;;;;;;5074691;28;20197;-67
2023/06/25 14:00:30;;;;;;;3.97;3.67;;;;;;;;;;5071471;28;20206;-67
2023/06/25 14:02:58;;;;;;;3.63;3.30;;;;;;;;;;5074415;28;20230;-66
2023/06/25 14:05:25;;;;;;;3.45;3.15;;;;;;;;;;5077960;28;20199;-67
2023/06/25 14:07:52;;;;;;;3.38;3.17;;;;;;;;;;5081862;28;20224;-67
2023/06/25 14:10:20;;;;;;;3.50;3.30;;;;;;;;;;5081646;28;20231;-67
2023/06/25 14:12:47;;;;;;;3.58;3.22;;;;;;;;;;5080732;28;20210;-67
2023/06/25 14:15:15;;;;;;;3.63;3.20;;;;;;;;;;5081391;28;20222;-66
2023/06/25 14:17:43;;;;;;;3.25;3.05;;;;;;;;;;5078163;28;20206;-67
2023/06/25 14:20:10;;;;;;;3.72;3.42;;;;;;;;;;5078940;28;20292;-66
2023/06/25 14:22:37;;;;;;;3.22;3.03;;;;;;;;;;5078698;28;20213;-66
2023/06/25 14:25:04;;;;;;;3.15;2.95;;;;;;;;;;5076669;28;20209;-67
2023/06/25 14:27:31;;;;;;;3.80;3.50;;;;;;;;;;5077286;28;20198;-67
2023/06/25 14:29:59;;;;;;;3.42;3.22;;;;;;;;;;5078213;28;20197;-67
2023/06/25 14:32:27;;;;;;;3.63;3.33;;;;;;;;;;5079184;28;20194;-67
2023/06/25 14:34:54;;;;;;;3.55;3.30;;;;;;;;;;5070528;28;20225;-67
2023/06/25 14:37:21;;;;;;;3.22;3.03;;;;;;;;;;5081503;28;20206;-67
2023/06/25 14:39:49;;;;;;;3.97;3.67;;;;;;;;;;5069486;28;20202;-67
2023/06/25 14:42:16;;;;;;;3.30;3.00;;;;;;;;;;5079011;28;20217;-67
2023/06/25 14:44:43;;;;;;;3.50;3.30;;;;;;;;;;5074980;28;20206;-67
2023/06/25 14:47:11;;;;;;;3.40;3.20;;;;;;;;;;5079773;28;20206;-68